sensor_id;sensor_type;location;lat;lon;timestamp;P1;durP1;ratioP1;P2;durP2;ratioP2
56102;SDS011;41970;48.774;9.280;2022-07-29T00:00:43;8.97;;;7.00;;
56102;SDS011;41970;48.774;9.280;2022-07-29T00:03:10;8.10;;;7.50;;
56102;SDS011;41970;48.774;9.280;2022-07-29T00:05:38;7.87;;;6.90;;
56102;SDS011;41970;48.774;9.280;2022-07-29T00:08:07;7.60;;;6.37;;
56102;SDS011;41970;48.774;9.280;2022-07-29T00:10:34;7.00;;;6.40;;
56102;SDS011;41970;48.774;9.280;2022-07-29T00:13:00;6.83;;;6.23;;
56102;SDS011;41970;48.774;9.280;2022-07-29T00:15:26;8.37;;;7.50;;
56102;SDS011;41970;48.774;9.280;2022-07-29T00:17:52;9.57;;;7.37;;
56102;SDS011;41970;48.774;9.280;2022-07-29T00:20:18;6.67;;;6.17;;
56102;SDS011;41970;48.774;9.280;2022-07-29T00:22:44;7.03;;;5.73;;
56102;SDS011;41970;48.774;9.280;2022-07-29T00:25:11;7.30;;;6.60;;
56102;SDS011;41970;48.774;9.280;2022-07-29T00:27:37;7.30;;;6.70;;
56102;SDS011;41970;48.774;9.280;2022-07-29T00:30:04;7.80;;;7.10;;
56102;SDS011;41970;48.774;9.280;2022-07-29T00:32:31;6.87;;;6.37;;
56102;SDS011;41970;48.774;9.280;2022-07-29T00:34:57;6.43;;;5.90;;
56102;SDS011;41970;48.774;9.280;2022-07-29T00:37:42;6.73;;;6.23;;
56102;SDS011;41970;48.774;9.280;2022-07-29T00:40:08;5.60;;;5.20;;
56102;SDS011;41970;48.774;9.280;2022-07-29T00:42:47;7.17;;;6.43;;
56102;SDS011;41970;48.774;9.280;2022-07-29T00:45:15;6.77;;;6.03;;
56102;SDS011;41970;48.774;9.280;2022-07-29T00:47:41;8.20;;;6.40;;
56102;SDS011;41970;48.774;9.280;2022-07-29T00:50:08;7.07;;;6.43;;
56102;SDS011;41970;48.774;9.280;2022-07-29T00:52:36;7.40;;;6.70;;
56102;SDS011;41970;48.774;9.280;2022-07-29T00:55:04;7.00;;;6.40;;
56102;SDS011;41970;48.774;9.280;2022-07-29T00:57:31;6.80;;;6.20;;
56102;SDS011;41970;48.774;9.280;2022-07-29T00:59:58;7.43;;;6.70;;
56102;SDS011;41970;48.774;9.280;2022-07-29T01:02:23;7.20;;;6.60;;
56102;SDS011;41970;48.774;9.280;2022-07-29T01:04:49;6.50;;;5.87;;
56102;SDS011;41970;48.774;9.280;2022-07-29T01:07:16;7.23;;;6.53;;
56102;SDS011;41970;48.774;9.280;2022-07-29T01:09:43;9.97;;;6.80;;
56102;SDS011;41970;48.774;9.280;2022-07-29T01:12:11;7.63;;;6.80;;
56102;SDS011;41970;48.774;9.280;2022-07-29T01:14:45;8.00;;;6.57;;
56102;SDS011;41970;48.774;9.280;2022-07-29T01:17:14;6.73;;;6.10;;
56102;SDS011;41970;48.774;9.280;2022-07-29T01:28:42;7.37;;;6.80;;
56102;SDS011;41970;48.774;9.280;2022-07-29T01:31:45;8.93;;;7.43;;
56102;SDS011;41970;48.774;9.280;2022-07-29T01:37:21;7.00;;;6.40;;
56102;SDS011;41970;48.774;9.280;2022-07-29T01:40:11;7.70;;;7.10;;
56102;SDS011;41970;48.774;9.280;2022-07-29T01:42:51;9.27;;;7.10;;
56102;SDS011;41970;48.774;9.280;2022-07-29T01:45:21;7.50;;;6.80;;
56102;SDS011;41970;48.774;9.280;2022-07-29T01:50:50;7.30;;;6.73;;
56102;SDS011;41970;48.774;9.280;2022-07-29T01:53:23;7.20;;;6.57;;
56102;SDS011;41970;48.774;9.280;2022-07-29T01:55:56;7.37;;;6.00;;
56102;SDS011;41970;48.774;9.280;2022-07-29T01:58:25;7.83;;;6.20;;
56102;SDS011;41970;48.774;9.280;2022-07-29T02:00:53;7.63;;;6.93;;
56102;SDS011;41970;48.774;9.280;2022-07-29T02:03:22;6.77;;;6.20;;
56102;SDS011;41970;48.774;9.280;2022-07-29T02:05:49;9.03;;;6.70;;
56102;SDS011;41970;48.774;9.280;2022-07-29T02:08:16;7.20;;;6.60;;
56102;SDS011;41970;48.774;9.280;2022-07-29T02:10:44;7.20;;;6.50;;
56102;SDS011;41970;48.774;9.280;2022-07-29T02:13:12;7.37;;;6.67;;
56102;SDS011;41970;48.774;9.280;2022-07-29T02:15:41;6.80;;;6.27;;
56102;SDS011;41970;48.774;9.280;2022-07-29T02:18:11;7.00;;;6.30;;
56102;SDS011;41970;48.774;9.280;2022-07-29T02:20:44;7.20;;;6.40;;
56102;SDS011;41970;48.774;9.280;2022-07-29T02:23:14;7.40;;;6.73;;
56102;SDS011;41970;48.774;9.280;2022-07-29T02:25:44;7.10;;;6.40;;
56102;SDS011;41970;48.774;9.280;2022-07-29T02:28:13;7.50;;;6.90;;
56102;SDS011;41970;48.774;9.280;2022-07-29T02:30:40;6.90;;;6.40;;
56102;SDS011;41970;48.774;9.280;2022-07-29T02:33:08;7.07;;;6.37;;
56102;SDS011;41970;48.774;9.280;2022-07-29T02:35:38;6.57;;;5.97;;
56102;SDS011;41970;48.774;9.280;2022-07-29T02:38:07;6.60;;;6.00;;
56102;SDS011;41970;48.774;9.280;2022-07-29T02:40:56;5.40;;;4.90;;
56102;SDS011;41970;48.774;9.280;2022-07-29T02:43:24;6.23;;;5.63;;
56102;SDS011;41970;48.774;9.280;2022-07-29T02:45:51;6.13;;;5.53;;
56102;SDS011;41970;48.774;9.280;2022-07-29T02:48:21;6.70;;;6.20;;
56102;SDS011;41970;48.774;9.280;2022-07-29T02:50:54;6.10;;;5.60;;
56102;SDS011;41970;48.774;9.280;2022-07-29T02:53:26;5.60;;;5.10;;
56102;SDS011;41970;48.774;9.280;2022-07-29T02:55:57;5.37;;;4.97;;
56102;SDS011;41970;48.774;9.280;2022-07-29T02:58:30;5.50;;;5.10;;
56102;SDS011;41970;48.774;9.280;2022-07-29T03:01:00;5.60;;;5.20;;
56102;SDS011;41970;48.774;9.280;2022-07-29T03:03:30;6.43;;;5.00;;
56102;SDS011;41970;48.774;9.280;2022-07-29T03:06:02;5.10;;;4.73;;
56102;SDS011;41970;48.774;9.280;2022-07-29T03:08:30;5.40;;;5.00;;
56102;SDS011;41970;48.774;9.280;2022-07-29T03:10:57;5.33;;;4.83;;
56102;SDS011;41970;48.774;9.280;2022-07-29T03:13:24;5.80;;;5.40;;
56102;SDS011;41970;48.774;9.280;2022-07-29T03:15:52;4.90;;;4.50;;
56102;SDS011;41970;48.774;9.280;2022-07-29T03:18:18;5.70;;;5.00;;
56102;SDS011;41970;48.774;9.280;2022-07-29T03:20:44;5.50;;;5.00;;
56102;SDS011;41970;48.774;9.280;2022-07-29T03:23:10;4.67;;;4.27;;
56102;SDS011;41970;48.774;9.280;2022-07-29T03:25:36;5.20;;;4.70;;
56102;SDS011;41970;48.774;9.280;2022-07-29T03:28:02;5.53;;;5.13;;
56102;SDS011;41970;48.774;9.280;2022-07-29T03:30:28;6.00;;;5.50;;
56102;SDS011;41970;48.774;9.280;2022-07-29T03:32:56;5.47;;;4.77;;
56102;SDS011;41970;48.774;9.280;2022-07-29T03:35:22;6.00;;;5.50;;
56102;SDS011;41970;48.774;9.280;2022-07-29T03:37:48;7.00;;;5.40;;
56102;SDS011;41970;48.774;9.280;2022-07-29T03:40:16;5.10;;;4.70;;
56102;SDS011;41970;48.774;9.280;2022-07-29T03:42:47;5.70;;;4.90;;
56102;SDS011;41970;48.774;9.280;2022-07-29T03:45:15;6.10;;;5.60;;
56102;SDS011;41970;48.774;9.280;2022-07-29T03:47:48;5.63;;;5.23;;
56102;SDS011;41970;48.774;9.280;2022-07-29T03:50:17;5.40;;;5.00;;
56102;SDS011;41970;48.774;9.280;2022-07-29T03:52:46;5.33;;;4.83;;
56102;SDS011;41970;48.774;9.280;2022-07-29T03:55:12;6.20;;;5.60;;
56102;SDS011;41970;48.774;9.280;2022-07-29T03:57:39;6.17;;;5.33;;
56102;SDS011;41970;48.774;9.280;2022-07-29T04:00:06;5.20;;;4.80;;
56102;SDS011;41970;48.774;9.280;2022-07-29T04:02:36;5.80;;;5.30;;
56102;SDS011;41970;48.774;9.280;2022-07-29T04:05:03;6.10;;;5.50;;
56102;SDS011;41970;48.774;9.280;2022-07-29T04:07:29;6.40;;;5.90;;
56102;SDS011;41970;48.774;9.280;2022-07-29T04:09:55;5.70;;;5.23;;
56102;SDS011;41970;48.774;9.280;2022-07-29T04:12:20;5.33;;;4.93;;
56102;SDS011;41970;48.774;9.280;2022-07-29T04:14:46;5.70;;;5.20;;
56102;SDS011;41970;48.774;9.280;2022-07-29T04:17:12;5.30;;;4.90;;
56102;SDS011;41970;48.774;9.280;2022-07-29T04:19:38;5.77;;;5.27;;
56102;SDS011;41970;48.774;9.280;2022-07-29T04:22:04;5.40;;;5.00;;
56102;SDS011;41970;48.774;9.280;2022-07-29T04:24:29;5.43;;;5.03;;
56102;SDS011;41970;48.774;9.280;2022-07-29T04:26:55;5.73;;;5.27;;
56102;SDS011;41970;48.774;9.280;2022-07-29T04:29:21;6.17;;;5.67;;
56102;SDS011;41970;48.774;9.280;2022-07-29T04:31:47;5.23;;;4.83;;
56102;SDS011;41970;48.774;9.280;2022-07-29T04:34:13;6.73;;;5.00;;
56102;SDS011;41970;48.774;9.280;2022-07-29T04:36:39;6.00;;;5.40;;
56102;SDS011;41970;48.774;9.280;2022-07-29T04:39:04;5.13;;;4.73;;
56102;SDS011;41970;48.774;9.280;2022-07-29T04:41:30;6.20;;;5.80;;
56102;SDS011;41970;48.774;9.280;2022-07-29T04:43:56;6.37;;;5.87;;
56102;SDS011;41970;48.774;9.280;2022-07-29T04:46:22;5.30;;;5.00;;
56102;SDS011;41970;48.774;9.280;2022-07-29T04:48:48;5.23;;;4.80;;
56102;SDS011;41970;48.774;9.280;2022-07-29T04:51:15;5.70;;;5.30;;
56102;SDS011;41970;48.774;9.280;2022-07-29T04:53:41;5.63;;;5.23;;
56102;SDS011;41970;48.774;9.280;2022-07-29T04:56:07;5.77;;;5.37;;
56102;SDS011;41970;48.774;9.280;2022-07-29T04:58:36;6.77;;;6.27;;
56102;SDS011;41970;48.774;9.280;2022-07-29T05:01:03;5.77;;;5.27;;
56102;SDS011;41970;48.774;9.280;2022-07-29T05:03:29;6.10;;;5.50;;
56102;SDS011;41970;48.774;9.280;2022-07-29T05:05:55;6.50;;;4.63;;
56102;SDS011;41970;48.774;9.280;2022-07-29T05:08:21;5.80;;;5.30;;
56102;SDS011;41970;48.774;9.280;2022-07-29T05:10:47;4.60;;;4.20;;
56102;SDS011;41970;48.774;9.280;2022-07-29T05:13:13;5.53;;;5.13;;
56102;SDS011;41970;48.774;9.280;2022-07-29T05:15:38;5.80;;;5.40;;
56102;SDS011;41970;48.774;9.280;2022-07-29T05:18:05;5.20;;;4.70;;
56102;SDS011;41970;48.774;9.280;2022-07-29T05:20:31;5.87;;;5.37;;
56102;SDS011;41970;48.774;9.280;2022-07-29T05:22:58;5.30;;;4.80;;
56102;SDS011;41970;48.774;9.280;2022-07-29T05:25:25;5.23;;;4.83;;
56102;SDS011;41970;48.774;9.280;2022-07-29T05:27:52;6.37;;;5.27;;
56102;SDS011;41970;48.774;9.280;2022-07-29T05:30:18;6.90;;;6.27;;
56102;SDS011;41970;48.774;9.280;2022-07-29T05:32:44;6.30;;;5.90;;
56102;SDS011;41970;48.774;9.280;2022-07-29T05:35:11;6.10;;;5.60;;
56102;SDS011;41970;48.774;9.280;2022-07-29T05:37:37;5.93;;;5.43;;
56102;SDS011;41970;48.774;9.280;2022-07-29T05:40:03;7.63;;;6.13;;
56102;SDS011;41970;48.774;9.280;2022-07-29T05:42:30;6.50;;;5.90;;
56102;SDS011;41970;48.774;9.280;2022-07-29T05:44:56;6.60;;;5.20;;
56102;SDS011;41970;48.774;9.280;2022-07-29T05:47:22;5.60;;;4.77;;
56102;SDS011;41970;48.774;9.280;2022-07-29T05:49:48;6.10;;;5.50;;
56102;SDS011;41970;48.774;9.280;2022-07-29T05:52:15;6.23;;;5.70;;
56102;SDS011;41970;48.774;9.280;2022-07-29T05:54:41;5.70;;;5.20;;
56102;SDS011;41970;48.774;9.280;2022-07-29T05:57:07;6.70;;;6.20;;
56102;SDS011;41970;48.774;9.280;2022-07-29T05:59:37;5.80;;;5.13;;
56102;SDS011;41970;48.774;9.280;2022-07-29T06:02:03;5.60;;;5.20;;
56102;SDS011;41970;48.774;9.280;2022-07-29T06:04:30;5.33;;;4.93;;
56102;SDS011;41970;48.774;9.280;2022-07-29T06:06:57;7.50;;;6.20;;
56102;SDS011;41970;48.774;9.280;2022-07-29T06:09:23;6.77;;;6.03;;
56102;SDS011;41970;48.774;9.280;2022-07-29T06:11:49;6.93;;;5.23;;
56102;SDS011;41970;48.774;9.280;2022-07-29T06:14:14;6.77;;;6.30;;
56102;SDS011;41970;48.774;9.280;2022-07-29T06:16:40;4.93;;;4.63;;
56102;SDS011;41970;48.774;9.280;2022-07-29T06:19:06;5.93;;;5.53;;
56102;SDS011;41970;48.774;9.280;2022-07-29T06:21:32;5.30;;;4.20;;
56102;SDS011;41970;48.774;9.280;2022-07-29T06:23:58;6.00;;;5.40;;
56102;SDS011;41970;48.774;9.280;2022-07-29T06:26:24;6.93;;;4.80;;
56102;SDS011;41970;48.774;9.280;2022-07-29T06:28:50;6.60;;;6.00;;
56102;SDS011;41970;48.774;9.280;2022-07-29T06:31:19;6.60;;;6.10;;
56102;SDS011;41970;48.774;9.280;2022-07-29T06:33:45;6.80;;;6.20;;
56102;SDS011;41970;48.774;9.280;2022-07-29T06:36:11;5.53;;;5.03;;
56102;SDS011;41970;48.774;9.280;2022-07-29T06:38:37;4.47;;;4.03;;
56102;SDS011;41970;48.774;9.280;2022-07-29T06:41:03;4.17;;;3.87;;
56102;SDS011;41970;48.774;9.280;2022-07-29T06:46:04;3.73;;;3.40;;
56102;SDS011;41970;48.774;9.280;2022-07-29T06:48:31;4.63;;;4.33;;
56102;SDS011;41970;48.774;9.280;2022-07-29T06:50:58;5.23;;;4.43;;
56102;SDS011;41970;48.774;9.280;2022-07-29T06:53:24;5.03;;;4.53;;
56102;SDS011;41970;48.774;9.280;2022-07-29T06:55:50;6.00;;;5.50;;
56102;SDS011;41970;48.774;9.280;2022-07-29T06:58:16;4.70;;;4.40;;
56102;SDS011;41970;48.774;9.280;2022-07-29T07:00:45;4.90;;;4.50;;
56102;SDS011;41970;48.774;9.280;2022-07-29T07:03:13;4.20;;;3.80;;
56102;SDS011;41970;48.774;9.280;2022-07-29T07:05:39;4.53;;;4.13;;
56102;SDS011;41970;48.774;9.280;2022-07-29T07:08:05;10.00;;;4.80;;
56102;SDS011;41970;48.774;9.280;2022-07-29T07:10:32;4.43;;;3.77;;
56102;SDS011;41970;48.774;9.280;2022-07-29T07:12:58;4.73;;;4.23;;
56102;SDS011;41970;48.774;9.280;2022-07-29T07:15:25;4.93;;;4.43;;
56102;SDS011;41970;48.774;9.280;2022-07-29T07:17:52;5.20;;;4.00;;
56102;SDS011;41970;48.774;9.280;2022-07-29T07:20:18;5.43;;;4.93;;
56102;SDS011;41970;48.774;9.280;2022-07-29T07:22:44;6.43;;;5.83;;
56102;SDS011;41970;48.774;9.280;2022-07-29T07:25:12;6.03;;;5.53;;
56102;SDS011;41970;48.774;9.280;2022-07-29T07:27:38;5.00;;;4.60;;
56102;SDS011;41970;48.774;9.280;2022-07-29T07:30:05;4.40;;;4.10;;
56102;SDS011;41970;48.774;9.280;2022-07-29T07:32:34;4.77;;;4.43;;
56102;SDS011;41970;48.774;9.280;2022-07-29T07:35:02;6.90;;;5.13;;
56102;SDS011;41970;48.774;9.280;2022-07-29T07:37:29;4.93;;;4.43;;
56102;SDS011;41970;48.774;9.280;2022-07-29T07:39:56;5.70;;;4.33;;
56102;SDS011;41970;48.774;9.280;2022-07-29T07:42:22;5.50;;;4.83;;
56102;SDS011;41970;48.774;9.280;2022-07-29T07:44:49;4.50;;;4.20;;
56102;SDS011;41970;48.774;9.280;2022-07-29T07:47:15;4.90;;;4.30;;
56102;SDS011;41970;48.774;9.280;2022-07-29T07:49:50;4.63;;;4.23;;
56102;SDS011;41970;48.774;9.280;2022-07-29T07:52:17;5.10;;;4.53;;
56102;SDS011;41970;48.774;9.280;2022-07-29T07:54:44;5.20;;;4.80;;
56102;SDS011;41970;48.774;9.280;2022-07-29T07:57:13;5.27;;;4.87;;
56102;SDS011;41970;48.774;9.280;2022-07-29T07:59:40;7.30;;;4.63;;
56102;SDS011;41970;48.774;9.280;2022-07-29T08:02:06;4.20;;;3.90;;
56102;SDS011;41970;48.774;9.280;2022-07-29T08:04:33;5.10;;;4.70;;
56102;SDS011;41970;48.774;9.280;2022-07-29T08:06:59;4.30;;;4.00;;
56102;SDS011;41970;48.774;9.280;2022-07-29T08:09:27;5.27;;;4.80;;
56102;SDS011;41970;48.774;9.280;2022-07-29T08:11:54;5.83;;;3.77;;
56102;SDS011;41970;48.774;9.280;2022-07-29T08:14:21;4.73;;;4.17;;
56102;SDS011;41970;48.774;9.280;2022-07-29T08:16:47;4.70;;;4.30;;
56102;SDS011;41970;48.774;9.280;2022-07-29T08:19:13;5.13;;;4.37;;
56102;SDS011;41970;48.774;9.280;2022-07-29T08:21:38;4.53;;;4.23;;
56102;SDS011;41970;48.774;9.280;2022-07-29T08:24:05;4.93;;;4.50;;
56102;SDS011;41970;48.774;9.280;2022-07-29T08:26:50;5.60;;;4.90;;
56102;SDS011;41970;48.774;9.280;2022-07-29T08:29:16;4.60;;;4.30;;
56102;SDS011;41970;48.774;9.280;2022-07-29T08:31:42;4.50;;;4.20;;
56102;SDS011;41970;48.774;9.280;2022-07-29T08:34:08;5.20;;;3.60;;
56102;SDS011;41970;48.774;9.280;2022-07-29T08:36:34;4.37;;;3.97;;
56102;SDS011;41970;48.774;9.280;2022-07-29T08:39:00;6.13;;;3.43;;
56102;SDS011;41970;48.774;9.280;2022-07-29T08:41:27;4.37;;;3.90;;
56102;SDS011;41970;48.774;9.280;2022-07-29T08:43:54;4.73;;;4.43;;
56102;SDS011;41970;48.774;9.280;2022-07-29T08:46:20;4.77;;;4.27;;
56102;SDS011;41970;48.774;9.280;2022-07-29T08:48:46;5.13;;;4.10;;
56102;SDS011;41970;48.774;9.280;2022-07-29T08:51:13;5.00;;;4.67;;
56102;SDS011;41970;48.774;9.280;2022-07-29T08:53:45;5.40;;;4.90;;
56102;SDS011;41970;48.774;9.280;2022-07-29T08:56:16;5.00;;;4.60;;
56102;SDS011;41970;48.774;9.280;2022-07-29T08:58:43;4.67;;;4.27;;
56102;SDS011;41970;48.774;9.280;2022-07-29T09:01:10;5.03;;;4.40;;
56102;SDS011;41970;48.774;9.280;2022-07-29T09:03:41;4.07;;;3.77;;
56102;SDS011;41970;48.774;9.280;2022-07-29T09:06:13;4.37;;;4.07;;
56102;SDS011;41970;48.774;9.280;2022-07-29T09:08:40;4.70;;;3.90;;
56102;SDS011;41970;48.774;9.280;2022-07-29T09:11:07;5.07;;;4.57;;
56102;SDS011;41970;48.774;9.280;2022-07-29T09:13:33;5.27;;;4.20;;
56102;SDS011;41970;48.774;9.280;2022-07-29T09:15:59;6.07;;;5.20;;
56102;SDS011;41970;48.774;9.280;2022-07-29T09:18:35;5.83;;;5.33;;
56102;SDS011;41970;48.774;9.280;2022-07-29T09:21:03;4.47;;;4.13;;
56102;SDS011;41970;48.774;9.280;2022-07-29T09:24:06;4.27;;;3.90;;
56102;SDS011;41970;48.774;9.280;2022-07-29T09:26:32;4.70;;;4.30;;
56102;SDS011;41970;48.774;9.280;2022-07-29T09:29:01;5.10;;;4.70;;
56102;SDS011;41970;48.774;9.280;2022-07-29T09:31:35;5.83;;;4.90;;
56102;SDS011;41970;48.774;9.280;2022-07-29T09:34:04;6.20;;;4.80;;
56102;SDS011;41970;48.774;9.280;2022-07-29T09:36:37;4.90;;;4.40;;
56102;SDS011;41970;48.774;9.280;2022-07-29T09:39:12;6.10;;;5.60;;
56102;SDS011;41970;48.774;9.280;2022-07-29T09:41:49;5.00;;;4.60;;
56102;SDS011;41970;48.774;9.280;2022-07-29T09:44:20;4.37;;;3.97;;
56102;SDS011;41970;48.774;9.280;2022-07-29T09:46:56;4.63;;;4.33;;
56102;SDS011;41970;48.774;9.280;2022-07-29T09:49:33;4.50;;;4.10;;
56102;SDS011;41970;48.774;9.280;2022-07-29T09:52:09;5.27;;;4.40;;
56102;SDS011;41970;48.774;9.280;2022-07-29T09:54:36;7.53;;;4.37;;
56102;SDS011;41970;48.774;9.280;2022-07-29T09:57:06;5.47;;;5.07;;
56102;SDS011;41970;48.774;9.280;2022-07-29T09:59:37;5.83;;;5.30;;
56102;SDS011;41970;48.774;9.280;2022-07-29T10:02:12;5.70;;;4.83;;
56102;SDS011;41970;48.774;9.280;2022-07-29T10:04:41;5.97;;;5.37;;
56102;SDS011;41970;48.774;9.280;2022-07-29T10:07:08;5.40;;;4.53;;
56102;SDS011;41970;48.774;9.280;2022-07-29T10:09:34;5.37;;;4.97;;
56102;SDS011;41970;48.774;9.280;2022-07-29T10:12:10;5.23;;;4.70;;
56102;SDS011;41970;48.774;9.280;2022-07-29T10:14:42;4.60;;;4.27;;
56102;SDS011;41970;48.774;9.280;2022-07-29T10:17:08;5.07;;;4.57;;
56102;SDS011;41970;48.774;9.280;2022-07-29T10:19:35;4.70;;;4.20;;
56102;SDS011;41970;48.774;9.280;2022-07-29T10:22:04;4.80;;;4.40;;
56102;SDS011;41970;48.774;9.280;2022-07-29T10:24:34;5.20;;;4.70;;
56102;SDS011;41970;48.774;9.280;2022-07-29T10:27:01;5.17;;;4.67;;
56102;SDS011;41970;48.774;9.280;2022-07-29T10:29:29;8.13;;;4.37;;
56102;SDS011;41970;48.774;9.280;2022-07-29T10:32:07;6.17;;;5.57;;
56102;SDS011;41970;48.774;9.280;2022-07-29T10:34:41;7.17;;;5.23;;
56102;SDS011;41970;48.774;9.280;2022-07-29T10:37:33;5.43;;;5.00;;
56102;SDS011;41970;48.774;9.280;2022-07-29T10:43:31;7.00;;;4.70;;
56102;SDS011;41970;48.774;9.280;2022-07-29T10:46:01;5.27;;;4.77;;
56102;SDS011;41970;48.774;9.280;2022-07-29T10:48:28;6.27;;;5.63;;
56102;SDS011;41970;48.774;9.280;2022-07-29T10:51:00;5.03;;;4.67;;
56102;SDS011;41970;48.774;9.280;2022-07-29T10:56:29;5.13;;;4.73;;
56102;SDS011;41970;48.774;9.280;2022-07-29T11:01:43;5.87;;;5.40;;
56102;SDS011;41970;48.774;9.280;2022-07-29T11:04:09;5.43;;;4.93;;
56102;SDS011;41970;48.774;9.280;2022-07-29T11:09:33;7.53;;;5.63;;
56102;SDS011;41970;48.774;9.280;2022-07-29T11:11:59;7.50;;;6.47;;
56102;SDS011;41970;48.774;9.280;2022-07-29T11:17:22;6.97;;;6.40;;
56102;SDS011;41970;48.774;9.280;2022-07-29T11:19:48;9.80;;;9.00;;
56102;SDS011;41970;48.774;9.280;2022-07-29T11:22:32;10.53;;;8.10;;
56102;SDS011;41970;48.774;9.280;2022-07-29T11:25:15;9.50;;;8.30;;
56102;SDS011;41970;48.774;9.280;2022-07-29T11:27:42;15.40;;;9.73;;
56102;SDS011;41970;48.774;9.280;2022-07-29T11:30:09;11.53;;;8.30;;
56102;SDS011;41970;48.774;9.280;2022-07-29T11:32:40;7.30;;;6.60;;
56102;SDS011;41970;48.774;9.280;2022-07-29T11:35:20;10.60;;;4.10;;
56102;SDS011;41970;48.774;9.280;2022-07-29T11:38:30;5.83;;;4.97;;
56102;SDS011;41970;48.774;9.280;2022-07-29T11:43:57;8.77;;;5.00;;
56102;SDS011;41970;48.774;9.280;2022-07-29T11:49:22;8.57;;;3.90;;
56102;SDS011;41970;48.774;9.280;2022-07-29T11:51:53;9.00;;;4.67;;
56102;SDS011;41970;48.774;9.280;2022-07-29T11:54:25;6.10;;;3.70;;
56102;SDS011;41970;48.774;9.280;2022-07-29T11:56:55;5.93;;;3.97;;
56102;SDS011;41970;48.774;9.280;2022-07-29T11:59:23;4.30;;;3.37;;
56102;SDS011;41970;48.774;9.280;2022-07-29T12:01:53;10.30;;;4.50;;
56102;SDS011;41970;48.774;9.280;2022-07-29T12:04:19;8.07;;;4.27;;
56102;SDS011;41970;48.774;9.280;2022-07-29T12:06:51;6.57;;;4.80;;
56102;SDS011;41970;48.774;9.280;2022-07-29T12:09:20;6.30;;;4.07;;
56102;SDS011;41970;48.774;9.280;2022-07-29T12:11:47;5.20;;;3.30;;
56102;SDS011;41970;48.774;9.280;2022-07-29T12:14:26;4.00;;;3.30;;
56102;SDS011;41970;48.774;9.280;2022-07-29T12:16:57;8.13;;;3.40;;
56102;SDS011;41970;48.774;9.280;2022-07-29T12:19:24;4.00;;;3.20;;
56102;SDS011;41970;48.774;9.280;2022-07-29T12:21:51;5.63;;;3.80;;
56102;SDS011;41970;48.774;9.280;2022-07-29T12:24:23;4.67;;;3.70;;
56102;SDS011;41970;48.774;9.280;2022-07-29T12:27:07;7.20;;;3.77;;
56102;SDS011;41970;48.774;9.280;2022-07-29T12:29:33;4.17;;;3.77;;
56102;SDS011;41970;48.774;9.280;2022-07-29T12:31:59;3.83;;;3.47;;
56102;SDS011;41970;48.774;9.280;2022-07-29T12:34:26;3.40;;;3.10;;
56102;SDS011;41970;48.774;9.280;2022-07-29T12:36:53;5.13;;;3.50;;
56102;SDS011;41970;48.774;9.280;2022-07-29T12:39:20;4.20;;;3.47;;
56102;SDS011;41970;48.774;9.280;2022-07-29T12:41:46;4.77;;;3.53;;
56102;SDS011;41970;48.774;9.280;2022-07-29T12:44:12;5.50;;;3.77;;
56102;SDS011;41970;48.774;9.280;2022-07-29T12:46:38;3.67;;;3.37;;
56102;SDS011;41970;48.774;9.280;2022-07-29T12:49:04;5.23;;;3.43;;
56102;SDS011;41970;48.774;9.280;2022-07-29T12:54:06;3.60;;;3.30;;
56102;SDS011;41970;48.774;9.280;2022-07-29T12:56:38;3.47;;;3.17;;
56102;SDS011;41970;48.774;9.280;2022-07-29T12:59:14;3.90;;;3.30;;
56102;SDS011;41970;48.774;9.280;2022-07-29T13:01:41;5.10;;;3.77;;
56102;SDS011;41970;48.774;9.280;2022-07-29T13:04:07;4.97;;;4.50;;
56102;SDS011;41970;48.774;9.280;2022-07-29T13:06:34;4.90;;;4.47;;
56102;SDS011;41970;48.774;9.280;2022-07-29T13:09:11;4.73;;;4.10;;
56102;SDS011;41970;48.774;9.280;2022-07-29T13:11:39;4.30;;;3.90;;
56102;SDS011;41970;48.774;9.280;2022-07-29T13:14:08;4.43;;;4.03;;
56102;SDS011;41970;48.774;9.280;2022-07-29T13:16:35;3.73;;;3.43;;
56102;SDS011;41970;48.774;9.280;2022-07-29T13:19:11;3.20;;;3.00;;
56102;SDS011;41970;48.774;9.280;2022-07-29T13:21:38;3.80;;;3.50;;
56102;SDS011;41970;48.774;9.280;2022-07-29T13:24:05;3.83;;;3.53;;
56102;SDS011;41970;48.774;9.280;2022-07-29T13:26:32;3.80;;;3.50;;
56102;SDS011;41970;48.774;9.280;2022-07-29T13:28:58;4.60;;;3.83;;
56102;SDS011;41970;48.774;9.280;2022-07-29T13:31:24;7.23;;;4.07;;
56102;SDS011;41970;48.774;9.280;2022-07-29T13:33:50;4.43;;;4.07;;
56102;SDS011;41970;48.774;9.280;2022-07-29T13:36:16;4.03;;;3.73;;
56102;SDS011;41970;48.774;9.280;2022-07-29T13:38:42;4.30;;;3.93;;
56102;SDS011;41970;48.774;9.280;2022-07-29T13:41:08;4.37;;;4.00;;
56102;SDS011;41970;48.774;9.280;2022-07-29T13:43:34;4.97;;;4.47;;
56102;SDS011;41970;48.774;9.280;2022-07-29T13:46:00;4.67;;;4.33;;
56102;SDS011;41970;48.774;9.280;2022-07-29T13:48:25;5.10;;;4.60;;
56102;SDS011;41970;48.774;9.280;2022-07-29T13:50:51;6.30;;;5.03;;
56102;SDS011;41970;48.774;9.280;2022-07-29T13:53:17;6.63;;;5.10;;
56102;SDS011;41970;48.774;9.280;2022-07-29T13:55:43;6.30;;;5.80;;
56102;SDS011;41970;48.774;9.280;2022-07-29T13:58:09;5.80;;;5.40;;
56102;SDS011;41970;48.774;9.280;2022-07-29T14:00:35;6.23;;;5.50;;
56102;SDS011;41970;48.774;9.280;2022-07-29T14:03:01;6.67;;;6.07;;
56102;SDS011;41970;48.774;9.280;2022-07-29T14:05:26;13.53;;;6.73;;
56102;SDS011;41970;48.774;9.280;2022-07-29T14:07:52;6.53;;;5.97;;
56102;SDS011;41970;48.774;9.280;2022-07-29T14:10:18;7.20;;;6.50;;
56102;SDS011;41970;48.774;9.280;2022-07-29T14:12:44;6.10;;;5.60;;
56102;SDS011;41970;48.774;9.280;2022-07-29T14:15:10;8.20;;;6.53;;
56102;SDS011;41970;48.774;9.280;2022-07-29T14:17:35;6.60;;;6.07;;
56102;SDS011;41970;48.774;9.280;2022-07-29T14:20:01;7.13;;;6.57;;
56102;SDS011;41970;48.774;9.280;2022-07-29T14:22:28;6.33;;;5.77;;
56102;SDS011;41970;48.774;9.280;2022-07-29T14:24:54;6.37;;;5.87;;
56102;SDS011;41970;48.774;9.280;2022-07-29T14:27:20;6.77;;;6.27;;
56102;SDS011;41970;48.774;9.280;2022-07-29T14:29:46;7.33;;;6.77;;
56102;SDS011;41970;48.774;9.280;2022-07-29T14:32:11;7.20;;;6.40;;
56102;SDS011;41970;48.774;9.280;2022-07-29T14:34:39;7.00;;;5.90;;
56102;SDS011;41970;48.774;9.280;2022-07-29T14:37:05;6.07;;;5.67;;
56102;SDS011;41970;48.774;9.280;2022-07-29T14:39:32;6.53;;;5.93;;
56102;SDS011;41970;48.774;9.280;2022-07-29T14:41:59;5.97;;;5.37;;
56102;SDS011;41970;48.774;9.280;2022-07-29T14:44:24;7.13;;;6.50;;
56102;SDS011;41970;48.774;9.280;2022-07-29T14:46:56;6.27;;;5.67;;
56102;SDS011;41970;48.774;9.280;2022-07-29T14:49:24;6.03;;;5.53;;
56102;SDS011;41970;48.774;9.280;2022-07-29T14:51:50;8.00;;;7.00;;
56102;SDS011;41970;48.774;9.280;2022-07-29T14:54:16;6.63;;;6.10;;
56102;SDS011;41970;48.774;9.280;2022-07-29T14:56:42;7.43;;;6.70;;
56102;SDS011;41970;48.774;9.280;2022-07-29T14:59:08;8.20;;;7.40;;
56102;SDS011;41970;48.774;9.280;2022-07-29T15:01:34;7.80;;;7.13;;
56102;SDS011;41970;48.774;9.280;2022-07-29T15:04:00;7.30;;;6.70;;
56102;SDS011;41970;48.774;9.280;2022-07-29T15:06:26;7.80;;;7.20;;
56102;SDS011;41970;48.774;9.280;2022-07-29T15:08:52;6.73;;;6.17;;
56102;SDS011;41970;48.774;9.280;2022-07-29T15:11:17;7.50;;;6.90;;
56102;SDS011;41970;48.774;9.280;2022-07-29T15:13:43;8.50;;;7.47;;
56102;SDS011;41970;48.774;9.280;2022-07-29T15:16:09;7.57;;;6.97;;
56102;SDS011;41970;48.774;9.280;2022-07-29T15:18:35;6.57;;;6.07;;
56102;SDS011;41970;48.774;9.280;2022-07-29T15:21:03;7.13;;;6.63;;
56102;SDS011;41970;48.774;9.280;2022-07-29T15:23:31;7.30;;;6.60;;
56102;SDS011;41970;48.774;9.280;2022-07-29T15:25:58;7.50;;;6.90;;
56102;SDS011;41970;48.774;9.280;2022-07-29T15:28:24;6.70;;;6.17;;
56102;SDS011;41970;48.774;9.280;2022-07-29T15:30:50;6.53;;;5.90;;
56102;SDS011;41970;48.774;9.280;2022-07-29T15:33:15;7.83;;;7.00;;
56102;SDS011;41970;48.774;9.280;2022-07-29T15:35:41;6.37;;;5.73;;